createdAt,value
2018-02-11T00:00:26.701Z,4.98
2018-02-11T00:01:27.372Z,4.98
2018-02-11T00:02:27.131Z,4.99
2018-02-11T00:03:27.496Z,4.99
2018-02-11T00:04:27.145Z,4.98
2018-02-11T00:05:27.259Z,4.97
2018-02-11T00:06:27.261Z,4.98
2018-02-11T00:07:27.361Z,4.98
2018-02-11T00:08:26.738Z,4.97
2018-02-11T00:09:27.200Z,4.98
2018-02-11T00:10:26.755Z,4.96
2018-02-11T00:11:27.255Z,4.98
2018-02-11T00:12:27.100Z,4.97
2018-02-11T00:13:27.003Z,4.96
2018-02-11T00:14:27.204Z,4.97
2018-02-11T00:15:27.219Z,4.98
2018-02-11T00:16:27.136Z,4.97
2018-02-11T00:17:27.152Z,4.97
2018-02-11T00:18:26.697Z,4.97
2018-02-11T00:19:27.268Z,4.96
2018-02-11T00:20:27.267Z,4.97
2018-02-11T00:21:27.328Z,4.97
2018-02-11T00:22:27.272Z,4.98
2018-02-11T00:23:26.854Z,4.97
2018-02-11T00:24:27.346Z,4.98
2018-02-11T00:25:27.413Z,4.97
2018-02-11T00:26:26.732Z,4.98
2018-02-11T00:27:27.726Z,4.98
2018-02-11T00:28:27.555Z,4.98
2018-02-11T00:29:27.389Z,4.97
2018-02-11T00:30:27.260Z,4.97
2018-02-11T00:31:27.390Z,4.99
2018-02-11T00:32:27.257Z,4.96
2018-02-11T00:33:27.416Z,4.97
2018-02-11T00:34:27.270Z,4.98
2018-02-11T00:35:27.359Z,4.97
2018-02-11T00:36:27.307Z,4.99
2018-02-11T00:37:27.168Z,4.98
2018-02-11T00:38:27.491Z,4.96
2018-02-11T00:39:25.473Z,4.98
2018-02-11T00:40:25.330Z,4.99
2018-02-11T00:41:25.330Z,4.99
2018-02-11T00:42:25.316Z,4.98
2018-02-11T00:43:25.430Z,4.98
2018-02-11T00:44:25.375Z,4.98
2018-02-11T00:45:25.291Z,4.98
2018-02-11T00:46:25.339Z,4.97
2018-02-11T00:47:25.468Z,4.98
2018-02-11T00:48:25.447Z,4.97
2018-02-11T00:49:25.414Z,4.97
2018-02-11T00:50:25.239Z,4.97
2018-02-11T00:51:25.332Z,4.96
2018-02-11T00:52:25.388Z,4.96
2018-02-11T00:53:25.275Z,4.96
2018-02-11T00:54:25.283Z,4.95
2018-02-11T00:55:25.337Z,4.96
2018-02-11T00:56:25.324Z,4.95
2018-02-11T00:57:25.374Z,4.95
2018-02-11T00:58:25.309Z,4.94
2018-02-11T00:59:25.472Z,4.95
2018-02-11T01:00:25.348Z,4.94
2018-02-11T01:01:25.563Z,4.95
2018-02-11T01:02:25.431Z,4.94
2018-02-11T01:03:25.240Z,4.94
2018-02-11T01:04:25.358Z,4.92
2018-02-11T01:05:25.417Z,4.93
2018-02-11T01:06:25.270Z,4.94
2018-02-11T01:07:25.452Z,4.93
2018-02-11T01:08:25.438Z,4.93
2018-02-11T01:09:25.422Z,4.92
2018-02-11T01:10:25.611Z,4.91
2018-02-11T01:11:25.644Z,4.91
2018-02-11T01:12:25.560Z,4.91
2018-02-11T01:13:25.501Z,4.9
2018-02-11T01:14:25.694Z,4.9
2018-02-11T01:15:25.534Z,4.89
2018-02-11T01:16:25.597Z,4.89
2018-02-11T01:17:25.590Z,4.88
2018-02-11T01:18:25.630Z,4.87
2018-02-11T01:19:25.432Z,4.87
2018-02-11T01:20:25.666Z,4.86
2018-02-11T01:21:25.584Z,4.86
2018-02-11T01:22:25.443Z,4.86
2018-02-11T01:23:25.653Z,4.86
2018-02-11T01:24:25.510Z,4.85
2018-02-11T01:25:25.546Z,4.85
2018-02-11T01:26:25.587Z,4.86
2018-02-11T01:27:25.598Z,4.84
2018-02-11T01:28:25.610Z,4.83
2018-02-11T01:29:25.529Z,4.83
2018-02-11T01:30:25.654Z,4.83
2018-02-11T01:31:39.617Z,4.82
2018-02-11T01:32:25.669Z,4.83
2018-02-11T01:33:25.717Z,4.82
2018-02-11T01:34:25.571Z,4.82
2018-02-11T01:35:25.604Z,4.82
2018-02-11T01:36:25.535Z,4.82
2018-02-11T01:37:25.558Z,4.82
2018-02-11T01:38:25.592Z,4.81
2018-02-11T01:39:25.550Z,4.8
2018-02-11T01:40:25.558Z,4.8
2018-02-11T01:41:25.467Z,4.8
2018-02-11T01:42:25.448Z,4.8
2018-02-11T01:43:25.420Z,4.8
2018-02-11T01:44:25.345Z,4.81
2018-02-11T01:45:25.367Z,4.8
2018-02-11T01:46:25.370Z,4.79
2018-02-11T01:47:25.344Z,4.79
2018-02-11T01:48:25.386Z,4.79
2018-02-11T01:49:25.433Z,4.78
2018-02-11T01:50:25.482Z,4.79
2018-02-11T01:51:25.360Z,4.78
2018-02-11T01:52:25.457Z,4.78
2018-02-11T01:53:25.285Z,4.77
2018-02-11T01:54:25.383Z,4.77
2018-02-11T01:55:25.391Z,4.78
2018-02-11T01:56:25.383Z,4.78
2018-02-11T01:57:25.449Z,4.77
2018-02-11T01:58:25.605Z,4.76
2018-02-11T01:59:25.563Z,4.76
2018-02-11T02:00:25.390Z,4.76
2018-02-11T02:01:25.325Z,4.78
2018-02-11T02:02:25.321Z,4.76
2018-02-11T02:03:25.360Z,4.76
2018-02-11T02:04:25.479Z,4.75
2018-02-11T02:05:25.535Z,4.74
2018-02-11T02:06:25.332Z,4.74
2018-02-11T02:07:25.503Z,4.74
2018-02-11T02:08:25.507Z,4.72
2018-02-11T02:09:25.545Z,4.74
2018-02-11T02:10:25.357Z,4.73
2018-02-11T02:11:25.487Z,4.73
2018-02-11T02:12:25.408Z,4.73
2018-02-11T02:13:25.481Z,4.73
2018-02-11T02:14:25.548Z,4.73
2018-02-11T02:15:25.446Z,4.71
2018-02-11T02:16:25.501Z,4.71
2018-02-11T02:17:25.421Z,4.72
2018-02-11T02:18:25.575Z,4.71
2018-02-11T02:19:25.537Z,4.7
2018-02-11T02:20:25.516Z,4.71
2018-02-11T02:21:25.383Z,4.7
2018-02-11T02:22:25.465Z,4.71
2018-02-11T02:23:25.471Z,4.71
2018-02-11T02:24:25.421Z,4.7
2018-02-11T02:25:25.388Z,4.7
2018-02-11T02:26:25.488Z,4.7
2018-02-11T02:27:25.445Z,4.71
2018-02-11T02:28:25.604Z,4.7
2018-02-11T02:29:25.584Z,4.7
2018-02-11T02:30:25.569Z,4.71
2018-02-11T02:31:25.470Z,4.72
2018-02-11T02:32:25.394Z,4.72
2018-02-11T02:33:25.594Z,4.73
2018-02-11T02:34:25.445Z,4.71
2018-02-11T02:35:25.539Z,4.72
2018-02-11T02:36:25.760Z,4.72
2018-02-11T02:37:25.620Z,4.72
2018-02-11T02:38:25.565Z,4.71
2018-02-11T02:41:44.375Z,4.71
2018-02-11T02:42:25.141Z,4.7
2018-02-11T02:43:25.300Z,4.71
2018-02-11T02:44:25.274Z,4.72
2018-02-11T02:45:25.281Z,4.71
2018-02-11T02:46:25.144Z,4.71
2018-02-11T02:47:25.114Z,4.72
2018-02-11T02:48:25.138Z,4.72
2018-02-11T02:49:25.295Z,4.72
2018-02-11T02:50:25.237Z,4.71
2018-02-11T02:51:25.349Z,4.72
2018-02-11T02:52:25.243Z,4.72
2018-02-11T02:53:25.261Z,4.71
2018-02-11T02:54:25.345Z,4.72
2018-02-11T02:55:25.200Z,4.71
2018-02-11T02:56:25.186Z,4.71
2018-02-11T02:57:25.257Z,4.71
2018-02-11T02:58:25.366Z,4.71
2018-02-11T02:59:25.182Z,4.72
2018-02-11T03:00:25.180Z,4.71
2018-02-11T03:01:25.301Z,4.7
2018-02-11T03:02:25.263Z,4.71
2018-02-11T03:03:25.303Z,4.7
2018-02-11T03:04:25.322Z,4.7
2018-02-11T03:05:25.147Z,4.71
2018-02-11T03:06:25.190Z,4.71
2018-02-11T03:07:25.075Z,4.71
2018-02-11T03:08:25.214Z,4.7
2018-02-11T03:09:25.263Z,4.7
2018-02-11T03:10:25.097Z,4.7
2018-02-11T03:11:25.393Z,4.69
2018-02-11T03:12:25.343Z,4.69
2018-02-11T03:13:25.169Z,4.7
2018-02-11T03:14:25.289Z,4.68
2018-02-11T03:15:25.341Z,4.67
2018-02-11T03:16:25.156Z,4.66
2018-02-11T03:17:25.411Z,4.68
2018-02-11T03:18:25.282Z,4.68
2018-02-11T03:19:25.393Z,4.67
2018-02-11T03:20:25.324Z,4.66
2018-02-11T03:21:25.357Z,4.67
2018-02-11T03:22:25.273Z,4.66
2018-02-11T03:23:25.425Z,4.64
2018-02-11T03:24:25.267Z,4.66
2018-02-11T03:25:25.472Z,4.64
2018-02-11T03:26:25.361Z,4.66
2018-02-11T03:27:25.309Z,4.65
2018-02-11T03:28:25.315Z,4.65
2018-02-11T03:29:25.363Z,4.64
2018-02-11T03:30:25.399Z,4.64
2018-02-11T03:31:25.255Z,4.63
2018-02-11T03:32:25.205Z,4.64
2018-02-11T03:33:25.352Z,4.63
2018-02-11T03:34:25.416Z,4.63
2018-02-11T03:35:25.261Z,4.65
2018-02-11T03:36:25.327Z,4.64
2018-02-11T03:37:25.393Z,4.64
2018-02-11T03:38:25.353Z,4.64
2018-02-11T03:39:25.406Z,4.64
2018-02-11T03:40:25.356Z,4.63
2018-02-11T03:41:25.244Z,4.62
2018-02-11T03:42:25.346Z,4.62
2018-02-11T03:43:25.360Z,4.62
2018-02-11T03:44:25.280Z,4.62
2018-02-11T03:45:25.273Z,4.62
2018-02-11T03:46:25.232Z,4.63
2018-02-11T03:47:25.259Z,4.63
2018-02-11T03:48:25.252Z,4.62
2018-02-11T03:49:25.392Z,4.63
2018-02-11T03:50:25.206Z,4.62
2018-02-11T03:51:25.258Z,4.62
2018-02-11T03:52:25.414Z,4.62
2018-02-11T03:53:25.436Z,4.61
2018-02-11T03:54:25.531Z,4.62
2018-02-11T03:55:25.265Z,4.62
2018-02-11T03:56:25.312Z,4.6
2018-02-11T03:57:25.245Z,4.62
2018-02-11T03:58:25.365Z,4.6
2018-02-11T03:59:25.432Z,4.6
2018-02-11T04:00:25.477Z,4.59
2018-02-11T04:01:25.374Z,4.59
2018-02-11T04:02:25.326Z,4.6
2018-02-11T04:03:25.282Z,4.6
2018-02-11T04:04:25.362Z,4.6
2018-02-11T04:05:25.309Z,4.6
2018-02-11T04:06:25.317Z,4.59
2018-02-11T04:07:25.359Z,4.6
2018-02-11T04:08:25.242Z,4.61
2018-02-11T04:09:25.334Z,4.6
2018-02-11T04:10:25.332Z,4.59
2018-02-11T04:11:25.318Z,4.6
2018-02-11T04:12:25.499Z,4.59
2018-02-11T04:13:25.338Z,4.59
2018-02-11T04:14:25.191Z,4.6
2018-02-11T04:15:27.315Z,4.6
2018-02-11T04:16:26.890Z,4.59
2018-02-11T04:17:27.120Z,4.6
2018-02-11T04:20:27.387Z,4.59
2018-02-11T04:21:27.201Z,4.59
2018-02-11T04:22:27.165Z,4.58
2018-02-11T04:23:27.277Z,4.58
2018-02-11T04:24:27.243Z,4.57
2018-02-11T04:25:27.352Z,4.57
2018-02-11T04:26:27.158Z,4.57
2018-02-11T04:27:27.242Z,4.57
2018-02-11T04:28:27.122Z,4.58
2018-02-11T04:29:27.194Z,4.58
2018-02-11T04:30:27.200Z,4.58
2018-02-11T04:31:27.246Z,4.56
2018-02-11T04:32:27.203Z,4.55
2018-02-11T04:33:27.101Z,4.54
2018-02-11T04:34:27.333Z,4.55
2018-02-11T04:35:27.073Z,4.54
2018-02-11T04:36:27.280Z,4.55
2018-02-11T04:37:27.239Z,4.52
2018-02-11T04:38:27.125Z,4.55
2018-02-11T04:39:27.190Z,4.54
2018-02-11T04:40:27.140Z,4.55
2018-02-11T04:41:27.134Z,4.53
2018-02-11T04:42:27.116Z,4.54
2018-02-11T04:43:25.979Z,4.53
2018-02-11T04:44:27.170Z,4.54
2018-02-11T04:45:26.017Z,4.53
2018-02-11T04:46:27.217Z,4.52
2018-02-11T04:47:27.200Z,4.51
2018-02-11T04:48:27.182Z,4.52
2018-02-11T04:49:25.960Z,4.51
2018-02-11T04:50:26.009Z,4.53
2018-02-11T04:51:27.293Z,4.54
2018-02-11T04:52:27.275Z,4.53
2018-02-11T04:53:27.135Z,4.53
2018-02-11T04:54:27.107Z,4.53
2018-02-11T04:55:27.057Z,4.52
2018-02-11T04:56:27.290Z,4.53
2018-02-11T04:57:27.247Z,4.52
2018-02-11T04:58:27.221Z,4.53
2018-02-11T04:59:27.055Z,4.52
2018-02-11T05:00:27.038Z,4.53
2018-02-11T05:01:27.191Z,4.53
2018-02-11T05:02:26.027Z,4.53
2018-02-11T05:03:27.326Z,4.53
2018-02-11T05:04:26.013Z,4.52
2018-02-11T05:05:25.985Z,4.51
2018-02-11T05:06:27.230Z,4.51
2018-02-11T05:07:27.187Z,4.51
2018-02-11T05:08:27.299Z,4.51
2018-02-11T05:09:26.024Z,4.5
2018-02-11T05:10:27.347Z,4.51
2018-02-11T05:11:27.311Z,4.51
2018-02-11T05:12:27.142Z,4.5
2018-02-11T05:13:27.259Z,4.51
2018-02-11T05:14:27.327Z,4.48
2018-02-11T05:15:25.165Z,4.5
2018-02-11T05:16:25.224Z,4.49
2018-02-11T05:17:25.146Z,4.48
2018-02-11T05:18:25.187Z,4.49
2018-02-11T05:19:25.243Z,4.49
2018-02-11T05:20:25.299Z,4.49
2018-02-11T05:21:25.237Z,4.49
2018-02-11T05:22:25.279Z,4.49
2018-02-11T05:23:25.238Z,4.47
2018-02-11T05:24:25.155Z,4.47
2018-02-11T05:25:25.319Z,4.47
2018-02-11T05:26:25.293Z,4.46
2018-02-11T05:27:25.351Z,4.46
2018-02-11T05:28:25.605Z,4.45
2018-02-11T05:29:25.364Z,4.45
2018-02-11T05:30:25.367Z,4.46
2018-02-11T05:31:25.276Z,4.45
2018-02-11T05:32:25.248Z,4.44
2018-02-11T05:33:25.149Z,4.44
2018-02-11T05:34:25.157Z,4.44
2018-02-11T05:35:25.185Z,4.43
2018-02-11T05:36:25.239Z,4.43
2018-02-11T05:39:36.891Z,4.45
2018-02-11T05:40:25.291Z,4.46
2018-02-11T05:41:25.344Z,4.44
2018-02-11T05:42:25.309Z,4.44
2018-02-11T05:43:25.240Z,4.42
2018-02-11T05:44:25.276Z,4.44
2018-02-11T05:45:25.174Z,4.44
2018-02-11T05:46:25.899Z,4.43
2018-02-11T05:47:26.000Z,4.43
2018-02-11T05:48:25.923Z,4.43
2018-02-11T05:49:26.023Z,4.44
2018-02-11T05:50:26.004Z,4.43
2018-02-11T05:51:25.946Z,4.43
2018-02-11T05:52:26.123Z,4.42
2018-02-11T05:53:26.052Z,4.43
2018-02-11T05:54:26.057Z,4.42
2018-02-11T05:55:26.009Z,4.41
2018-02-11T05:56:25.879Z,4.4
2018-02-11T05:57:25.971Z,4.42
2018-02-11T05:58:25.975Z,4.41
2018-02-11T05:59:26.004Z,4.42
2018-02-11T06:00:26.032Z,4.41
2018-02-11T06:01:25.942Z,4.41
2018-02-11T06:02:25.934Z,4.39
2018-02-11T06:03:26.163Z,4.39
2018-02-11T06:04:26.008Z,4.4
2018-02-11T06:05:26.110Z,4.39
2018-02-11T06:06:25.996Z,4.4
2018-02-11T06:07:26.073Z,4.38
2018-02-11T06:08:25.954Z,4.37
2018-02-11T06:09:26.085Z,4.39
2018-02-11T06:10:25.950Z,4.37
2018-02-11T06:11:25.915Z,4.35
2018-02-11T06:12:26.026Z,4.35
2018-02-11T06:13:26.010Z,4.36
2018-02-11T06:14:26.019Z,4.32
2018-02-11T06:15:25.987Z,4.32
2018-02-11T06:16:25.766Z,4.33
2018-02-11T06:17:25.854Z,4.33
2018-02-11T06:18:25.759Z,4.35
2018-02-11T06:19:25.927Z,4.35
2018-02-11T06:20:25.988Z,4.34
2018-02-11T06:21:25.819Z,4.35
2018-02-11T06:22:25.868Z,4.36
2018-02-11T06:23:25.851Z,4.33
2018-02-11T06:24:25.777Z,4.34
2018-02-11T06:25:25.901Z,4.34
2018-02-11T06:26:25.830Z,4.33
2018-02-11T06:27:25.801Z,4.33
2018-02-11T06:28:25.756Z,4.33
2018-02-11T06:29:25.886Z,4.31
2018-02-11T06:30:25.824Z,4.31
2018-02-11T06:31:25.947Z,4.3
2018-02-11T06:32:25.801Z,4.33
2018-02-11T06:33:25.913Z,4.33
2018-02-11T06:34:25.933Z,4.29
2018-02-11T06:35:25.811Z,4.3
2018-02-11T06:36:25.739Z,4.29
2018-02-11T06:37:25.753Z,4.31
2018-02-11T06:38:25.761Z,4.33
2018-02-11T06:39:25.804Z,4.32
2018-02-11T06:40:25.874Z,4.31
2018-02-11T06:41:25.809Z,4.32
2018-02-11T06:42:25.804Z,4.33
2018-02-11T06:43:25.911Z,4.35
2018-02-11T06:44:25.968Z,4.32
2018-02-11T06:45:26.116Z,4.36
2018-02-11T06:46:26.139Z,4.34
2018-02-11T06:47:26.123Z,4.35
2018-02-11T06:48:26.014Z,4.37
2018-02-11T06:49:26.100Z,4.34
2018-02-11T06:50:25.971Z,4.38
2018-02-11T06:51:25.976Z,4.38
2018-02-11T06:52:26.088Z,4.38
2018-02-11T06:53:26.117Z,4.35
2018-02-11T06:54:26.124Z,4.32
2018-02-11T06:55:26.024Z,4.35
2018-02-11T06:56:26.658Z,4.34
2018-02-11T06:57:26.121Z,4.32
2018-02-11T06:58:26.024Z,4.33
2018-02-11T06:59:26.101Z,4.3
2018-02-11T07:00:25.942Z,4.3
2018-02-11T07:01:26.152Z,4.31
2018-02-11T07:02:26.026Z,4.28
2018-02-11T07:03:26.177Z,4.27
2018-02-11T07:04:26.059Z,4.28
2018-02-11T07:05:26.012Z,4.3
2018-02-11T07:06:26.206Z,4.28
2018-02-11T07:07:26.103Z,4.28
2018-02-11T07:08:25.994Z,4.28
2018-02-11T07:09:26.000Z,4.27
2018-02-11T07:10:25.971Z,4.31
2018-02-11T07:11:26.106Z,4.29
2018-02-11T07:12:26.088Z,4.26
2018-02-11T07:13:26.242Z,4.26
2018-02-11T07:14:25.984Z,4.26
2018-02-11T07:15:26.082Z,4.26
2018-02-11T07:16:25.980Z,4.25
2018-02-11T07:17:25.918Z,4.25
2018-02-11T07:18:25.974Z,4.26
2018-02-11T07:19:25.787Z,4.25
2018-02-11T07:20:25.868Z,4.25
2018-02-11T07:21:25.869Z,4.21
2018-02-11T07:22:25.896Z,4.24
2018-02-11T07:23:25.822Z,4.27
2018-02-11T07:24:25.867Z,4.25
2018-02-11T07:25:25.824Z,4.27
2018-02-11T07:26:25.948Z,4.27
2018-02-11T07:27:26.028Z,4.29
2018-02-11T07:28:25.939Z,4.28
2018-02-11T07:29:25.928Z,4.25
2018-02-11T07:30:26.120Z,4.28
2018-02-11T07:31:25.971Z,4.27
2018-02-11T07:32:26.005Z,4.25
2018-02-11T07:33:25.855Z,4.27
2018-02-11T07:34:26.074Z,4.29
2018-02-11T07:35:26.119Z,4.27
2018-02-11T07:36:25.827Z,4.31
2018-02-11T07:37:26.026Z,4.31
2018-02-11T07:38:25.884Z,4.3
2018-02-11T07:39:25.799Z,4.27
2018-02-11T07:40:25.828Z,4.29
2018-02-11T07:41:26.019Z,4.3
2018-02-11T07:42:26.170Z,4.31
2018-02-11T07:43:25.942Z,4.25
2018-02-11T07:44:25.784Z,4.25
2018-02-11T07:45:25.940Z,4.26
2018-02-11T07:46:26.062Z,4.27
2018-02-11T07:47:26.233Z,4.28
2018-02-11T07:48:26.137Z,4.26
2018-02-11T07:49:26.042Z,4.27
2018-02-11T07:50:25.883Z,4.28
2018-02-11T07:51:26.132Z,4.29
2018-02-11T07:52:26.047Z,4.29
2018-02-11T07:53:26.087Z,4.29
2018-02-11T07:54:26.081Z,4.27
2018-02-11T07:55:26.081Z,4.26
2018-02-11T07:56:26.369Z,4.29
2018-02-11T07:57:26.227Z,4.26
2018-02-11T07:58:26.093Z,4.22
2018-02-11T07:59:26.077Z,4.26
2018-02-11T08:00:26.237Z,4.28
2018-02-11T08:01:26.067Z,4.23
2018-02-11T08:02:26.048Z,4.29
2018-02-11T08:03:26.063Z,4.28
2018-02-11T08:04:26.145Z,4.29
2018-02-11T08:05:26.083Z,4.28
2018-02-11T08:06:26.282Z,4.26
2018-02-11T08:07:25.966Z,4.23
2018-02-11T08:08:25.882Z,4.24
2018-02-11T08:09:26.044Z,4.28
2018-02-11T08:10:26.116Z,4.27
2018-02-11T08:11:26.120Z,4.3
2018-02-11T08:12:25.975Z,4.29
2018-02-11T08:13:26.136Z,4.25
2018-02-11T08:14:26.090Z,4.29
2018-02-11T08:15:26.075Z,4.24
2018-02-11T08:16:26.021Z,4.24
2018-02-11T08:17:26.323Z,4.24
2018-02-11T08:18:26.372Z,4.23
2018-02-11T08:19:26.395Z,4.22
2018-02-11T08:20:26.180Z,4.18
2018-02-11T08:21:26.262Z,4.24
2018-02-11T08:22:26.287Z,4.2
2018-02-11T08:23:26.254Z,4.19
2018-02-11T08:24:26.314Z,4.2
2018-02-11T08:25:26.202Z,4.2
2018-02-11T08:26:26.338Z,4.2
2018-02-11T08:27:26.291Z,4.17
2018-02-11T08:28:26.298Z,4.2
2018-02-11T08:29:26.155Z,4.15
2018-02-11T08:30:26.440Z,4.17
2018-02-11T08:31:26.175Z,4.18
2018-02-11T08:32:26.246Z,4.21
2018-02-11T08:33:26.262Z,4.22
2018-02-11T08:34:26.282Z,4.2
2018-02-11T08:35:26.358Z,4.16
2018-02-11T08:36:26.239Z,4.15
2018-02-11T08:37:26.254Z,4.19
2018-02-11T08:38:26.360Z,4.23
2018-02-11T08:39:26.253Z,4.17
2018-02-11T08:40:26.113Z,4.15
2018-02-11T08:41:26.076Z,4.19
2018-02-11T08:42:26.254Z,4.18
2018-02-11T08:43:26.527Z,4.27
2018-02-11T08:44:26.136Z,4.29
2018-02-11T08:45:26.315Z,4.33
2018-02-11T08:46:26.185Z,4.31
2018-02-11T08:47:26.348Z,4.34
2018-02-11T08:48:25.249Z,4.38
2018-02-11T08:49:25.246Z,4.43
2018-02-11T08:50:25.312Z,4.43
2018-02-11T08:51:25.264Z,4.41
2018-02-11T08:52:25.368Z,4.44
2018-02-11T08:53:25.097Z,4.44
2018-02-11T08:54:25.299Z,4.45
2018-02-11T08:55:25.210Z,4.42
2018-02-11T08:56:25.135Z,4.4
2018-02-11T08:57:25.153Z,4.39
2018-02-11T08:58:25.208Z,4.39
2018-02-11T08:59:25.307Z,4.4
2018-02-11T09:00:25.437Z,4.41
2018-02-11T09:01:25.125Z,4.42
2018-02-11T09:02:25.291Z,4.4
2018-02-11T09:03:25.206Z,4.38
2018-02-11T09:04:25.277Z,4.41
2018-02-11T09:05:25.192Z,4.45
2018-02-11T09:06:25.388Z,4.45
2018-02-11T09:07:26.503Z,4.5
2018-02-11T09:08:25.397Z,4.55
2018-02-11T09:09:25.455Z,4.56
2018-02-11T09:10:25.264Z,4.59
2018-02-11T09:11:25.969Z,4.62
2018-02-11T09:12:25.908Z,4.64
2018-02-11T09:13:25.435Z,4.65
2018-02-11T09:14:25.339Z,4.64
2018-02-11T09:15:25.313Z,4.63
2018-02-11T09:16:25.218Z,4.62
2018-02-11T09:17:25.523Z,4.65
2018-02-11T09:18:25.231Z,4.64
2018-02-11T09:19:26.098Z,4.63
2018-02-11T09:20:26.124Z,4.63
2018-02-11T09:21:26.014Z,4.63
2018-02-11T09:22:26.359Z,4.62
2018-02-11T09:23:26.140Z,4.66
2018-02-11T09:24:26.065Z,4.66
2018-02-11T09:25:26.735Z,4.62
2018-02-11T09:26:26.475Z,4.63
2018-02-11T09:27:26.063Z,4.63
2018-02-11T09:28:25.989Z,4.64
2018-02-11T09:29:26.112Z,4.66
2018-02-11T09:30:26.738Z,4.63
2018-02-11T09:31:26.125Z,4.64
2018-02-11T09:32:26.098Z,4.65
2018-02-11T09:33:26.372Z,4.63
2018-02-11T09:34:25.925Z,4.65
2018-02-11T09:35:26.140Z,4.62
2018-02-11T09:36:26.849Z,4.64
2018-02-11T09:37:26.255Z,4.65
2018-02-11T09:38:26.097Z,4.63
2018-02-11T09:39:26.217Z,4.65
2018-02-11T09:40:26.111Z,4.69
2018-02-11T09:41:26.182Z,4.67
2018-02-11T09:42:26.351Z,4.65
2018-02-11T09:43:26.246Z,4.71
2018-02-11T09:44:26.060Z,4.67
2018-02-11T09:45:26.338Z,4.67
2018-02-11T09:46:26.111Z,4.67
2018-02-11T09:47:26.170Z,4.67
2018-02-11T09:48:27.293Z,4.68
2018-02-11T09:49:25.863Z,4.69
2018-02-11T09:50:26.398Z,4.69
2018-02-11T09:51:26.867Z,4.7
2018-02-11T09:52:27.288Z,4.73
2018-02-11T09:53:26.842Z,4.72
2018-02-11T09:54:26.632Z,4.69
2018-02-11T09:55:25.981Z,4.7
2018-02-11T09:56:26.466Z,4.7
2018-02-11T09:57:26.650Z,4.72
2018-02-11T09:58:25.814Z,4.73
2018-02-11T09:59:26.449Z,4.74
2018-02-11T10:00:26.749Z,4.76
2018-02-11T10:01:26.019Z,4.74
2018-02-11T10:02:27.127Z,4.76
2018-02-11T10:03:26.444Z,4.75
2018-02-11T10:04:25.817Z,4.76
2018-02-11T10:05:25.904Z,4.76
2018-02-11T10:06:27.584Z,4.76
2018-02-11T10:07:26.606Z,4.76
2018-02-11T10:08:26.467Z,4.77
2018-02-11T10:09:26.746Z,4.77
2018-02-11T10:10:26.536Z,4.77
2018-02-11T10:11:25.950Z,4.78
2018-02-11T10:12:27.525Z,4.8
2018-02-11T10:13:27.477Z,4.8
2018-02-11T10:14:26.760Z,4.82
2018-02-11T10:15:26.981Z,4.8
2018-02-11T10:16:25.951Z,4.82
2018-02-11T10:17:27.059Z,4.8
2018-02-11T10:18:26.616Z,4.83
2018-02-11T10:19:26.321Z,4.83
2018-02-11T10:20:26.348Z,4.84
2018-02-11T10:21:26.585Z,4.85
2018-02-11T10:22:26.378Z,4.87
2018-02-11T10:23:25.920Z,4.86
2018-02-11T10:24:26.880Z,4.86
2018-02-11T10:25:26.517Z,4.87
2018-02-11T10:26:26.429Z,4.86
2018-02-11T10:27:26.577Z,4.88
2018-02-11T10:28:26.236Z,4.88
2018-02-11T10:29:26.434Z,4.88
2018-02-11T10:30:27.309Z,4.89
2018-02-11T10:31:26.713Z,4.88
2018-02-11T10:32:26.295Z,4.9
2018-02-11T10:33:26.849Z,4.91
2018-02-11T10:34:26.432Z,4.9
2018-02-11T10:35:26.143Z,4.88
2018-02-11T10:36:26.852Z,4.91
2018-02-11T10:37:26.405Z,4.9
2018-02-11T10:38:26.476Z,4.87
2018-02-11T10:39:26.335Z,4.9
2018-02-11T10:40:26.102Z,4.89
2018-02-11T10:41:26.426Z,4.89
2018-02-11T10:42:26.941Z,4.92
2018-02-11T10:43:26.602Z,4.93
2018-02-11T10:44:26.389Z,4.95
2018-02-11T10:45:26.529Z,4.96
2018-02-11T10:46:26.281Z,4.95
2018-02-11T10:47:26.557Z,4.94
2018-02-11T10:48:27.215Z,4.94
2018-02-11T10:49:26.593Z,4.96
2018-02-11T10:50:26.700Z,4.96
2018-02-11T10:51:27.434Z,4.98
2018-02-11T10:52:26.902Z,4.98
2018-02-11T10:53:26.680Z,5
2018-02-11T10:54:26.993Z,4.99
2018-02-11T10:55:26.768Z,4.98
2018-02-11T10:56:26.724Z,4.99
2018-02-11T10:57:28.426Z,5
2018-02-11T10:58:26.823Z,5.04
2018-02-11T10:59:26.865Z,5.03
2018-02-11T11:00:26.930Z,5.03
2018-02-11T11:01:26.779Z,5.03
2018-02-11T11:02:26.900Z,5.05
2018-02-11T11:03:26.832Z,5.04
2018-02-11T11:04:26.912Z,5.04
2018-02-11T11:05:26.753Z,5.02
2018-02-11T11:06:26.703Z,5.03
2018-02-11T11:07:26.780Z,5.05
2018-02-11T11:08:26.531Z,5.05
2018-02-11T11:09:27.073Z,5.07
2018-02-11T11:10:26.941Z,5.05
2018-02-11T11:11:26.712Z,5.04
2018-02-11T11:12:26.943Z,5.08
2018-02-11T11:13:26.666Z,5.06
2018-02-11T11:15:26.808Z,5.07
2018-02-11T11:16:26.643Z,5.07
2018-02-11T11:17:27.162Z,5.08
2018-02-11T11:18:27.703Z,5.1
2018-02-11T11:19:26.571Z,5.06
2018-02-11T11:20:26.538Z,5.06
2018-02-11T11:21:26.290Z,5.04
2018-02-11T11:22:26.177Z,5.06
2018-02-11T11:23:26.192Z,5.06
2018-02-11T11:24:26.284Z,5.05
2018-02-11T11:25:26.158Z,5.06
2018-02-11T11:26:26.334Z,5.05
2018-02-11T11:27:26.335Z,5.09
2018-02-11T11:28:26.192Z,5.09
2018-02-11T11:29:26.083Z,5.09
2018-02-11T11:30:26.845Z,5.11
2018-02-11T11:31:26.169Z,5.09
2018-02-11T11:32:26.048Z,5.09
2018-02-11T11:33:26.238Z,5.1
2018-02-11T11:34:26.390Z,5.09
2018-02-11T11:35:26.691Z,5.09
2018-02-11T11:36:26.507Z,5.11
2018-02-11T11:37:26.531Z,5.09
2018-02-11T11:38:26.232Z,5.08
2018-02-11T11:39:26.348Z,5.07
2018-02-11T11:40:26.188Z,5.08
2018-02-11T11:41:26.114Z,5.11
2018-02-11T11:42:26.395Z,5.12
2018-02-11T11:43:26.114Z,5.13
2018-02-11T11:44:26.188Z,5.16
2018-02-11T11:45:26.656Z,5.15
2018-02-11T11:46:26.185Z,5.17
2018-02-11T11:47:26.053Z,5.16
2018-02-11T11:48:27.393Z,5.15
2018-02-11T11:49:26.086Z,5.17
2018-02-11T11:50:26.093Z,5.17
2018-02-11T11:51:26.385Z,5.16
2018-02-11T11:52:26.622Z,5.19
2018-02-11T11:53:26.197Z,5.15
2018-02-11T11:54:27.214Z,5.17
2018-02-11T11:55:26.793Z,5.17
2018-02-11T11:56:26.399Z,5.16
2018-02-11T11:57:26.574Z,5.17
2018-02-11T11:58:26.332Z,5.17
2018-02-11T11:59:27.410Z,5.16
2018-02-11T12:00:26.691Z,5.16
2018-02-11T12:01:26.662Z,5.19
2018-02-11T12:02:26.852Z,5.17
2018-02-11T12:03:27.279Z,5.19
2018-02-11T12:04:26.681Z,5.2
2018-02-11T12:05:26.990Z,5.22
2018-02-11T12:06:26.586Z,5.2
2018-02-11T12:07:26.752Z,5.24
2018-02-11T12:08:26.805Z,5.25
2018-02-11T12:09:26.433Z,5.22
2018-02-11T12:10:26.360Z,5.21
2018-02-11T12:11:27.732Z,5.21
2018-02-11T12:12:26.806Z,5.2
2018-02-11T12:13:26.675Z,5.19
2018-02-11T12:14:27.141Z,5.2
2018-02-11T12:15:26.226Z,5.22
2018-02-11T12:16:27.137Z,5.24
2018-02-11T12:17:26.710Z,5.23
2018-02-11T12:18:26.412Z,5.23
2018-02-11T12:19:26.578Z,5.25
2018-02-11T12:20:26.711Z,5.24
2018-02-11T12:21:27.029Z,5.25
2018-02-11T12:22:26.278Z,5.27
2018-02-11T12:23:25.957Z,5.24
2018-02-11T12:24:26.111Z,5.24
2018-02-11T12:25:26.218Z,5.24
2018-02-11T12:26:26.552Z,5.25
2018-02-11T12:27:26.520Z,5.23
2018-02-11T12:28:26.334Z,5.24
2018-02-11T12:29:26.081Z,5.26
2018-02-11T12:30:26.164Z,5.27
2018-02-11T12:31:26.371Z,5.27
2018-02-11T12:32:26.382Z,5.29
2018-02-11T12:33:26.400Z,5.28
2018-02-11T12:34:26.310Z,5.26
2018-02-11T12:35:26.142Z,5.27
2018-02-11T12:36:26.377Z,5.28
2018-02-11T12:37:26.194Z,5.3
2018-02-11T12:38:25.981Z,5.29
2018-02-11T12:39:26.062Z,5.29
2018-02-11T12:40:26.249Z,5.33
2018-02-11T12:41:26.472Z,5.32
2018-02-11T12:42:26.370Z,5.32
2018-02-11T12:43:26.229Z,5.35
2018-02-11T12:44:26.185Z,5.33
2018-02-11T12:45:26.623Z,5.34
2018-02-11T12:46:26.714Z,5.37
2018-02-11T12:47:26.116Z,5.38
2018-02-11T12:48:26.348Z,5.35
2018-02-11T12:49:26.060Z,5.39
2018-02-11T12:50:26.067Z,5.38
2018-02-11T12:51:26.123Z,5.39
2018-02-11T12:52:26.179Z,5.41
2018-02-11T12:53:26.228Z,5.39
2018-02-11T12:54:26.501Z,5.38
2018-02-11T12:55:26.111Z,5.38
2018-02-11T12:56:26.094Z,5.38
2018-02-11T12:57:26.303Z,5.36
2018-02-11T12:58:26.270Z,5.39
2018-02-11T12:59:26.263Z,5.4
2018-02-11T13:00:26.192Z,5.42
2018-02-11T13:01:26.305Z,5.43
2018-02-11T13:02:26.263Z,5.42
2018-02-11T13:03:26.120Z,5.42
2018-02-11T13:04:26.187Z,5.42
2018-02-11T13:05:26.203Z,5.41
2018-02-11T13:06:26.744Z,5.43
2018-02-11T13:07:26.191Z,5.43
2018-02-11T13:08:26.106Z,5.45
2018-02-11T13:09:26.129Z,5.43
2018-02-11T13:10:26.068Z,5.44
2018-02-11T13:11:26.622Z,5.45
2018-02-11T13:12:26.059Z,5.48
2018-02-11T13:13:26.129Z,5.48
2018-02-11T13:14:26.193Z,5.46
2018-02-11T13:15:27.122Z,5.46
2018-02-11T13:16:26.791Z,5.47
2018-02-11T13:17:26.148Z,5.46
2018-02-11T13:18:26.293Z,5.44
2018-02-11T13:19:26.177Z,5.43
2018-02-11T13:20:26.199Z,5.41
2018-02-11T13:21:26.365Z,5.43
2018-02-11T13:22:26.037Z,5.41
2018-02-11T13:23:26.157Z,5.44
2018-02-11T13:24:26.195Z,5.45
2018-02-11T13:25:26.068Z,5.44
2018-02-11T13:26:26.364Z,5.49
2018-02-11T13:27:26.453Z,5.47
2018-02-11T13:28:26.310Z,5.44